Time;durP1;ratioP1;P1;durP2;ratioP2;P2;SDS_P1;SDS_P2;PMS_P1;PMS_P2;Temp;Humidity;BMP_temperature;BMP_pressure;BME280_temperature;BME280_humidity;BME280_pressure;Samples;Min_cycle;Max_cycle;Signal;HPM_P1;HPM_P2
2022/04/03 00:01:24;;;;;;;3.93;2.73;;;3.90;99.90;;;;;;4124687;28;20295;-58
2022/04/03 00:03:25;;;;;;;4.20;3.13;;;3.90;99.90;;;;;;4125327;28;20280;-53
2022/04/03 00:05:27;;;;;;;4.70;3.23;;;4.00;99.90;;;;;;4124399;28;20276;-58
2022/04/03 00:07:28;;;;;;;3.73;2.67;;;3.90;99.90;;;;;;4125072;28;20679;-57
2022/04/03 00:09:29;;;;;;;4.47;3.10;;;3.90;99.90;;;;;;4125176;28;20799;-58
2022/04/03 00:11:31;;;;;;;5.60;2.73;;;3.90;99.90;;;;;;4124903;28;20272;-58
2022/04/03 00:13:32;;;;;;;5.83;3.70;;;3.80;99.90;;;;;;4125875;28;20760;-58
2022/04/03 00:15:36;;;;;;;4.70;3.60;;;3.80;99.90;;;;;;4125342;28;20723;-56
2022/04/03 00:17:37;;;;;;;5.43;3.27;;;3.80;99.90;;;;;;4124547;28;20268;-56
2022/04/03 00:19:38;;;;;;;6.70;3.43;;;3.80;99.90;;;;;;4125678;28;20252;-58
2022/04/03 00:21:39;;;;;;;6.60;3.47;;;3.80;99.90;;;;;;4124670;28;20286;-58
2022/04/03 00:23:40;;;;;;;5.13;3.67;;;3.80;99.90;;;;;;4125172;28;20275;-58
2022/04/03 00:25:41;;;;;;;4.30;3.17;;;3.80;99.90;;;;;;4155357;28;20340;-57
2022/04/03 00:27:42;;;;;;;5.90;3.07;;;3.70;99.90;;;;;;4126301;28;20272;-57
2022/04/03 00:29:44;;;;;;;4.67;3.27;;;3.70;99.90;;;;;;4124662;28;20273;-56
2022/04/03 00:31:45;;;;;;;4.40;3.17;;;3.60;99.90;;;;;;4126316;28;20276;-58
2022/04/03 00:33:46;;;;;;;4.97;3.20;;;3.60;99.90;;;;;;4123866;28;20264;-54
2022/04/03 00:35:47;;;;;;;6.00;3.30;;;3.60;99.90;;;;;;4125626;28;20318;-56
2022/04/03 00:37:48;;;;;;;4.73;3.97;;;3.50;99.90;;;;;;4124325;28;20331;-58
2022/04/03 00:39:49;;;;;;;5.07;3.83;;;3.50;99.90;;;;;;4124929;28;20288;-56
2022/04/03 00:41:52;;;;;;;6.97;4.33;;;3.40;99.90;;;;;;4124144;28;20304;-55
2022/04/03 00:43:54;;;;;;;6.23;4.33;;;3.40;99.90;;;;;;4124783;28;20323;-56
2022/04/03 00:45:58;;;;;;;5.90;4.07;;;3.50;99.90;;;;;;4124416;28;20280;-55
2022/04/03 00:47:59;;;;;;;6.17;3.70;;;3.50;99.90;;;;;;4124363;28;20338;-54
2022/04/03 00:50:01;;;;;;;6.47;4.10;;;3.50;99.90;;;;;;4125016;28;20323;-57
2022/04/03 00:52:03;;;;;;;6.30;3.60;;;3.50;99.90;;;;;;4124305;28;20299;-54
2022/04/03 00:54:04;;;;;;;5.23;3.20;;;3.60;99.90;;;;;;4124458;28;20334;-56
2022/04/03 00:56:07;;;;;;;5.40;3.60;;;3.50;99.90;;;;;;4124106;28;20724;-53
2022/04/03 00:58:10;;;;;;;5.53;3.63;;;3.50;99.90;;;;;;4125521;28;20668;-57
2022/04/03 01:00:12;;;;;;;5.50;3.37;;;3.60;99.90;;;;;;4124749;28;20315;-57
2022/04/03 01:02:13;;;;;;;4.80;3.63;;;3.60;99.90;;;;;;4125227;28;20295;-53
2022/04/03 01:04:15;;;;;;;5.40;3.60;;;3.60;99.90;;;;;;4123834;28;20843;-55
2022/04/03 01:06:17;;;;;;;5.70;3.50;;;3.50;99.90;;;;;;4125665;28;20331;-58
2022/04/03 01:08:18;;;;;;;6.20;3.57;;;3.50;99.90;;;;;;4123770;28;20272;-58
2022/04/03 01:10:20;;;;;;;6.90;3.70;;;3.50;99.90;;;;;;4124447;28;20720;-56
2022/04/03 01:12:21;;;;;;;5.47;3.70;;;3.40;99.90;;;;;;4123808;28;20264;-52
2022/04/03 01:14:42;;;;;;;5.20;3.67;;;3.40;99.90;;;;;;4124461;28;20350;-53
2022/04/03 01:16:43;;;;;;;7.63;3.90;;;3.40;99.90;;;;;;4123893;28;20268;-56
2022/04/03 01:18:45;;;;;;;5.33;3.57;;;3.40;99.90;;;;;;4124744;28;20318;-58
2022/04/03 01:20:46;;;;;;;6.10;3.50;;;3.50;99.90;;;;;;4123770;28;20268;-55
2022/04/03 01:22:47;;;;;;;4.90;3.37;;;3.50;99.90;;;;;;4124337;28;20280;-57
2022/04/03 01:24:55;;;;;;;6.70;4.60;;;3.50;99.90;;;;;;4124672;28;20664;-58
2022/04/03 01:26:57;;;;;;;7.70;4.57;;;3.50;99.90;;;;;;4124684;28;20338;-58
2022/04/03 01:28:58;;;;;;;6.27;4.30;;;3.60;99.90;;;;;;4124315;28;20311;-58
2022/04/03 01:30:59;;;;;;;4.73;3.03;;;3.60;99.90;;;;;;4123370;28;20338;-57
2022/04/03 01:33:00;;;;;;;4.03;2.97;;;3.60;99.90;;;;;;4124792;28;20280;-58
2022/04/03 01:35:01;;;;;;;3.87;2.90;;;3.60;99.90;;;;;;4124242;28;20699;-51
2022/04/03 01:37:03;;;;;;;3.10;2.70;;;3.60;99.90;;;;;;4124215;28;20334;-58
2022/04/03 01:39:04;;;;;;;4.07;2.93;;;3.70;99.90;;;;;;4123347;28;20268;-58
2022/04/03 01:41:05;;;;;;;3.83;3.00;;;3.70;99.90;;;;;;4125195;28;20354;-57
2022/04/03 01:43:09;;;;;;;4.03;2.73;;;3.70;99.90;;;;;;4123298;28;20744;-59
2022/04/03 01:45:10;;;;;;;4.53;3.07;;;3.80;99.90;;;;;;4123997;28;20378;-55
2022/04/03 01:47:12;;;;;;;3.87;2.70;;;3.70;99.90;;;;;;4123258;28;20275;-60
2022/04/03 01:49:13;;;;;;;4.27;2.40;;;3.70;99.90;;;;;;4124815;28;20274;-59
2022/04/03 01:51:14;;;;;;;4.20;3.13;;;3.60;99.90;;;;;;4123541;28;20318;-57
2022/04/03 01:53:15;;;;;;;4.47;2.80;;;3.60;99.90;;;;;;4124648;28;20314;-56
2022/04/03 01:55:16;;;;;;;3.80;2.70;;;3.50;99.90;;;;;;4123948;28;20342;-53
2022/04/03 01:57:17;;;;;;;3.60;2.80;;;3.60;99.90;;;;;;4123587;28;20334;-54
2022/04/03 01:59:18;;;;;;;6.10;3.23;;;3.50;99.90;;;;;;4124601;28;20268;-55
2022/04/03 02:01:20;;;;;;;5.13;3.00;;;3.50;99.90;;;;;;4123179;28;20272;-58
2022/04/03 02:03:21;;;;;;;3.63;2.70;;;3.60;99.90;;;;;;4124070;28;20322;-56
2022/04/03 02:05:22;;;;;;;4.40;2.80;;;3.50;99.90;;;;;;4121278;28;20284;-57
2022/04/03 02:07:24;;;;;;;5.13;3.07;;;3.50;99.90;;;;;;4123780;28;20326;-58
2022/04/03 02:09:26;;;;;;;3.87;2.97;;;3.50;99.90;;;;;;4122790;28;20275;-56
2022/04/03 02:11:27;;;;;;;4.43;3.30;;;3.50;99.90;;;;;;4124397;28;20276;-52
2022/04/03 02:13:29;;;;;;;5.07;3.10;;;3.60;99.90;;;;;;4122383;28;20330;-54
2022/04/03 02:15:30;;;;;;;5.03;3.37;;;3.60;99.90;;;;;;4123969;28;20296;-55
2022/04/03 02:17:31;;;;;;;4.90;3.43;;;3.60;99.90;;;;;;4123798;28;20389;-56
2022/04/03 02:19:33;;;;;;;4.63;3.50;;;3.60;99.90;;;;;;4123884;28;20279;-57
2022/04/03 02:21:34;;;;;;;4.77;3.27;;;3.60;99.90;;;;;;4122899;28;20752;-58
2022/04/03 02:23:35;;;;;;;4.70;3.13;;;3.60;99.90;;;;;;4124238;28;20276;-57
2022/04/03 02:25:36;;;;;;;3.93;2.90;;;3.50;99.90;;;;;;4122878;28;20311;-58
2022/04/03 02:27:39;;;;;;;4.73;3.20;;;3.50;99.90;;;;;;4124226;28;20272;-52
2022/04/03 02:29:40;;;;;;;3.83;2.90;;;3.50;99.90;;;;;;4123832;28;20264;-58
2022/04/03 02:31:42;;;;;;;4.77;3.33;;;3.50;99.90;;;;;;4123242;28;20308;-55
2022/04/03 02:33:44;;;;;;;4.67;3.30;;;3.50;99.90;;;;;;4124553;28;20782;-56
2022/04/03 02:35:45;;;;;;;3.77;2.83;;;3.50;99.90;;;;;;4122876;28;20311;-57
2022/04/03 02:37:46;;;;;;;4.67;3.23;;;3.50;99.90;;;;;;4124498;28;20748;-57
2022/04/03 02:39:47;;;;;;;8.63;4.73;;;3.60;99.90;;;;;;4122096;28;20357;-56
2022/04/03 02:41:48;;;;;;;7.23;4.27;;;3.50;99.90;;;;;;4124731;28;21181;-54
2022/04/03 02:43:51;;;;;;;11.63;6.57;;;3.50;99.90;;;;;;4122985;28;20339;-58
2022/04/03 02:45:52;;;;;;;8.23;4.60;;;3.50;99.90;;;;;;4124620;28;20329;-57
2022/04/03 02:47:55;;;;;;;5.97;4.00;;;3.50;99.90;;;;;;4125358;28;20319;-53
2022/04/03 02:49:56;;;;;;;4.73;3.40;;;3.50;99.90;;;;;;4126716;28;20326;-55
2022/04/03 02:51:57;;;;;;;6.10;3.00;;;3.50;99.90;;;;;;4126047;28;20268;-56
2022/04/03 02:53:58;;;;;;;4.73;3.30;;;3.50;99.90;;;;;;4127445;28;20346;-58
2022/04/03 02:56:00;;;;;;;5.80;3.80;;;3.50;99.90;;;;;;4125974;28;20466;-54
2022/04/03 02:58:01;;;;;;;6.77;3.83;;;3.50;99.90;;;;;;4126647;28;20338;-53
2022/04/03 03:00:04;;;;;;;4.27;3.40;;;3.40;99.90;;;;;;4126902;28;20272;-57
2022/04/03 03:02:05;;;;;;;4.27;3.20;;;3.40;99.90;;;;;;4126167;28;20268;-57
2022/04/03 03:04:06;;;;;;;6.03;3.90;;;3.40;99.90;;;;;;4126521;28;20288;-56
2022/04/03 03:06:07;;;;;;;4.60;3.30;;;3.30;99.90;;;;;;4126053;28;20306;-63
2022/04/03 03:08:08;;;;;;;6.27;3.90;;;3.30;99.90;;;;;;4126586;28;20276;-52
2022/04/03 03:10:13;;;;;;;4.43;3.30;;;3.20;99.90;;;;;;4125423;28;20339;-54
2022/04/03 03:12:14;;;;;;;5.67;3.63;;;3.20;99.90;;;;;;4126632;28;20288;-58
2022/04/03 03:14:16;;;;;;;5.73;3.57;;;3.20;99.90;;;;;;4125782;28;20292;-54
2022/04/03 03:16:18;;;;;;;5.03;3.60;;;3.20;99.90;;;;;;4126862;28;21699;-55
2022/04/03 03:18:19;;;;;;;6.13;4.00;;;3.20;99.90;;;;;;4126243;28;20280;-57
2022/04/03 03:20:21;;;;;;;5.00;3.30;;;3.20;99.90;;;;;;4126857;28;20697;-56
2022/04/03 03:22:22;;;;;;;4.47;3.30;;;3.20;99.90;;;;;;4126434;28;20272;-56
2022/04/03 03:24:23;;;;;;;6.37;4.50;;;3.10;99.90;;;;;;4127003;28;20334;-57
2022/04/03 03:26:25;;;;;;;5.70;4.13;;;3.10;99.90;;;;;;4125417;28;20276;-58
2022/04/03 03:28:26;;;;;;;6.50;3.90;;;3.00;99.90;;;;;;4126317;28;20812;-55
2022/04/03 03:30:27;;;;;;;6.23;4.00;;;3.00;99.90;;;;;;4125596;28;20272;-57
2022/04/03 03:32:28;;;;;;;6.30;3.60;;;3.00;99.90;;;;;;4125794;28;20695;-53
2022/04/03 03:34:30;;;;;;;6.50;4.23;;;2.90;99.90;;;;;;4125877;28;20269;-55
2022/04/03 03:36:31;;;;;;;4.67;3.40;;;2.90;99.90;;;;;;4125702;28;20701;-57
2022/04/03 03:38:32;;;;;;;5.50;3.77;;;2.80;99.90;;;;;;4126675;28;20272;-56
2022/04/03 03:40:38;;;;;;;6.13;4.30;;;2.80;99.90;;;;;;4125006;28;20260;-56
2022/04/03 03:42:41;;;;;;;5.70;3.57;;;2.80;99.90;;;;;;4126653;28;20591;-56
2022/04/03 03:44:43;;;;;;;6.23;3.90;;;2.70;99.90;;;;;;4125476;28;20280;-57
2022/04/03 03:46:44;;;;;;;6.83;4.30;;;2.70;99.90;;;;;;4126357;28;20338;-56
2022/04/03 03:48:45;;;;;;;5.43;3.90;;;2.60;99.90;;;;;;4125101;28;20783;-57
2022/04/03 03:50:46;;;;;;;7.23;4.47;;;2.60;99.90;;;;;;4125838;28;20302;-55
2022/04/03 03:52:47;;;;;;;7.03;4.60;;;2.60;99.90;;;;;;4124691;28;20287;-56
2022/04/03 03:54:48;;;;;;;6.53;4.30;;;2.60;99.90;;;;;;4125614;28;20330;-56
2022/04/03 03:56:49;;;;;;;6.40;4.30;;;2.60;99.90;;;;;;4124776;28;20342;-55
2022/04/03 03:58:50;;;;;;;6.43;4.37;;;2.50;99.90;;;;;;4125912;28;20315;-56
2022/04/03 04:00:52;;;;;;;5.77;4.43;;;2.50;99.90;;;;;;4125057;28;20303;-56
2022/04/03 04:02:53;;;;;;;7.00;4.33;;;2.50;99.90;;;;;;4126038;28;20264;-57
2022/04/03 04:04:55;;;;;;;6.07;3.97;;;2.40;99.90;;;;;;4125208;28;20276;-56
2022/04/03 04:06:56;;;;;;;8.17;4.70;;;2.40;99.90;;;;;;4125783;28;20327;-55
2022/04/03 04:08:57;;;;;;;8.40;5.03;;;2.40;99.90;;;;;;4125578;28;20322;-54
2022/04/03 04:10:58;;;;;;;8.10;4.50;;;2.40;99.90;;;;;;4125378;28;20299;-56
2022/04/03 04:13:00;;;;;;;9.37;5.00;;;2.40;99.90;;;;;;4125307;28;20306;-54
2022/04/03 04:15:03;;;;;;;7.60;4.77;;;2.40;99.90;;;;;;4125781;28;20292;-55
2022/04/03 04:17:09;;;;;;;7.73;4.50;;;2.40;99.90;;;;;;4124370;28;20276;-58
2022/04/03 04:19:10;;;;;;;7.03;4.63;;;2.40;99.90;;;;;;4125594;28;20268;-57
2022/04/03 04:21:12;;;;;;;9.37;5.20;;;2.40;99.90;;;;;;4125945;28;20280;-58
2022/04/03 04:23:13;;;;;;;6.50;4.30;;;2.30;99.90;;;;;;4124733;28;20272;-57
2022/04/03 04:25:16;;;;;;;7.77;4.80;;;2.30;99.90;;;;;;4125413;28;20606;-54
2022/04/03 04:27:17;;;;;;;9.47;5.27;;;2.40;99.90;;;;;;4125080;28;20326;-55
2022/04/03 04:29:18;;;;;;;8.40;5.20;;;2.40;99.90;;;;;;4125315;28;20865;-55
2022/04/03 04:31:19;;;;;;;8.27;5.00;;;2.40;99.90;;;;;;4124827;28;20350;-57
2022/04/03 04:33:20;;;;;;;8.13;5.00;;;2.30;99.90;;;;;;4125108;28;20303;-57
2022/04/03 04:35:22;;;;;;;8.17;4.77;;;2.30;99.90;;;;;;4124541;28;20343;-52
2022/04/03 04:37:23;;;;;;;7.57;4.50;;;2.30;99.90;;;;;;4125535;28;20272;-54
2022/04/03 04:39:25;;;;;;;6.90;4.40;;;2.30;99.90;;;;;;4125644;28;20283;-56
2022/04/03 04:41:26;;;;;;;6.60;4.70;;;2.30;99.90;;;;;;4124025;28;20358;-55
2022/04/03 04:43:27;;;;;;;7.53;5.17;;;2.30;99.90;;;;;;4125787;28;20288;-57
2022/04/03 04:45:28;;;;;;;7.27;4.97;;;2.30;99.90;;;;;;4124821;28;20280;-53
2022/04/03 04:47:34;;;;;;;7.30;4.90;;;2.30;99.90;;;;;;4125297;28;20268;-56
2022/04/03 04:49:36;;;;;;;7.37;4.73;;;2.30;99.90;;;;;;4123842;28;20343;-55
2022/04/03 04:51:37;;;;;;;6.17;4.30;;;2.30;99.90;;;;;;4125502;28;20676;-57
2022/04/03 04:53:38;;;;;;;7.27;4.30;;;2.30;99.90;;;;;;4123907;28;20323;-54
2022/04/03 04:55:39;;;;;;;5.77;3.63;;;2.30;99.90;;;;;;4124827;28;20362;-54
2022/04/03 04:57:40;;;;;;;6.03;3.63;;;2.20;99.90;;;;;;4123991;28;20272;-55
2022/04/03 04:59:42;;;;;;;5.07;3.23;;;2.20;99.90;;;;;;4124410;28;20716;-57
2022/04/03 05:01:43;;;;;;;5.33;3.43;;;2.20;99.90;;;;;;4123927;28;20272;-53
2022/04/03 05:03:44;;;;;;;5.97;4.00;;;2.10;99.90;;;;;;4124217;28;20794;-58
2022/04/03 05:05:46;;;;;;;4.53;2.73;;;2.10;99.90;;;;;;4124530;28;20275;-57
2022/04/03 05:07:50;;;;;;;4.67;3.17;;;2.10;99.90;;;;;;4124925;28;20676;-57
2022/04/03 05:09:51;;;;;;;5.53;2.93;;;2.10;99.90;;;;;;4124006;28;20260;-55
2022/04/03 05:11:53;;;;;;;5.07;3.07;;;2.10;99.90;;;;;;4123693;28;20268;-57
2022/04/03 05:13:54;;;;;;;5.13;3.10;;;2.10;99.90;;;;;;4124040;28;20272;-54
2022/04/03 05:15:55;;;;;;;6.63;3.90;;;2.20;99.90;;;;;;4123692;28;20747;-56
2022/04/03 05:17:58;;;;;;;6.20;3.97;;;2.20;99.90;;;;;;4124784;28;20318;-56
2022/04/03 05:20:00;;;;;;;4.53;3.20;;;2.20;99.90;;;;;;4123481;28;20276;-56
2022/04/03 05:22:01;;;;;;;5.27;3.37;;;2.20;99.90;;;;;;4124285;28;20290;-56
2022/04/03 05:24:03;;;;;;;5.93;3.50;;;2.30;99.90;;;;;;4123659;28;20288;-58
2022/04/03 05:26:05;;;;;;;6.17;3.80;;;2.30;99.90;;;;;;4125037;28;20284;-59
2022/04/03 05:28:07;;;;;;;5.53;4.60;;;2.30;99.90;;;;;;4124074;28;20268;-59
2022/04/03 05:30:09;;;;;;;5.57;3.90;;;2.40;99.90;;;;;;4124142;28;20341;-58
2022/04/03 05:32:11;;;;;;;4.60;3.20;;;2.40;99.90;;;;;;4122990;28;20268;-55
2022/04/03 05:34:12;;;;;;;4.47;3.00;;;2.50;99.90;;;;;;4124083;28;20703;-57
2022/04/03 05:36:14;;;;;;;5.23;3.60;;;2.50;99.90;;;;;;4123317;28;20370;-59
2022/04/03 05:38:15;;;;;;;3.93;2.73;;;2.50;99.90;;;;;;4122508;28;20272;-58
2022/04/03 05:40:16;;;;;;;4.30;3.40;;;2.50;99.90;;;;;;4122547;28;20323;-56
2022/04/03 05:42:21;;;;;;;4.77;3.50;;;2.40;99.90;;;;;;4123964;28;20300;-56
2022/04/03 05:44:23;;;;;;;4.80;3.17;;;2.50;99.90;;;;;;4123794;28;20651;-57
2022/04/03 05:46:24;;;;;;;2.97;2.67;;;2.50;99.90;;;;;;4122996;28;20295;-57
2022/04/03 05:48:25;;;;;;;4.10;2.97;;;2.50;99.90;;;;;;4123704;28;20318;-58
2022/04/03 05:50:26;;;;;;;4.23;2.80;;;2.50;99.90;;;;;;4123206;28;20326;-61
2022/04/03 05:52:27;;;;;;;4.10;2.90;;;2.50;99.90;;;;;;4122745;28;20276;-56
2022/04/03 05:54:28;;;;;;;4.47;3.43;;;2.60;99.90;;;;;;4123156;28;20828;-56
2022/04/03 05:56:31;;;;;;;5.53;3.47;;;2.60;99.90;;;;;;4154579;28;20826;-57
2022/04/03 05:58:32;;;;;;;5.67;3.03;;;2.60;99.90;;;;;;4123203;28;20326;-57
2022/04/03 06:00:34;;;;;;;4.23;3.30;;;2.60;99.90;;;;;;4124085;28;20288;-55
2022/04/03 06:02:56;;;;;;;4.40;3.30;;;2.60;99.90;;;;;;4123309;28;20346;-52
2022/04/03 06:04:57;;;;;;;4.13;2.90;;;2.60;99.90;;;;;;4124339;28;20272;-54
2022/04/03 06:06:58;;;;;;;5.40;3.43;;;2.60;99.90;;;;;;4123491;28;20327;-55
2022/04/03 06:08:59;;;;;;;5.13;2.93;;;2.60;99.90;;;;;;4123394;28;20271;-55
2022/04/03 06:11:00;;;;;;;4.13;3.00;;;2.70;99.90;;;;;;4123097;28;20314;-56
2022/04/03 06:13:03;;;;;;;4.13;2.67;;;2.70;99.90;;;;;;4123303;28;20264;-56
2022/04/03 06:15:04;;;;;;;4.53;2.83;;;2.70;99.90;;;;;;4122913;28;20280;-53
2022/04/03 06:17:06;;;;;;;3.87;2.73;;;2.70;99.90;;;;;;4122782;28;20330;-57
2022/04/03 06:19:07;;;;;;;4.63;2.63;;;2.80;99.90;;;;;;4122819;28;20272;-59
2022/04/03 06:21:09;;;;;;;4.47;3.00;;;2.70;99.90;;;;;;4121680;28;20358;-57
2022/04/03 06:23:18;;;;;;;4.20;2.87;;;2.70;99.90;;;;;;4123809;28;20351;-53
2022/04/03 06:25:20;;;;;;;4.00;2.93;;;2.70;99.90;;;;;;4122850;28;20791;-58
2022/04/03 06:27:21;;;;;;;3.53;2.77;;;2.70;99.90;;;;;;4123137;28;20349;-58
2022/04/03 06:29:22;;;;;;;4.37;2.60;;;2.70;99.90;;;;;;4123088;28;20395;-53
2022/04/03 06:31:24;;;;;;;4.43;2.50;;;2.70;99.90;;;;;;4123862;28;20334;-58
2022/04/03 06:33:25;;;;;;;3.83;2.40;;;2.60;99.90;;;;;;4123199;28;20768;-58
2022/04/03 06:35:26;;;;;;;3.83;2.53;;;2.60;99.90;;;;;;4123338;28;20284;-54
2022/04/03 06:37:27;;;;;;;3.57;2.50;;;2.50;99.90;;;;;;4122800;28;20259;-57
2022/04/03 06:39:28;;;;;;;4.63;2.40;;;2.50;99.90;;;;;;4123025;28;20295;-57
2022/04/03 06:41:29;;;;;;;4.20;2.70;;;2.50;99.90;;;;;;4123037;28;20343;-60
2022/04/03 06:43:31;;;;;;;4.00;2.60;;;2.50;99.90;;;;;;4123372;28;20318;-55
2022/04/03 06:45:32;;;;;;;5.63;2.73;;;2.50;99.90;;;;;;4122767;28;20276;-58
2022/04/03 06:47:35;;;;;;;4.20;2.83;;;2.50;99.90;;;;;;4123284;28;20276;-57
2022/04/03 06:49:40;;;;;;;4.57;3.10;;;2.50;99.90;;;;;;4122989;28;20268;-59
2022/04/03 06:51:41;;;;;;;4.50;2.70;;;2.50;99.90;;;;;;4123471;28;20311;-56
2022/04/03 06:53:42;;;;;;;3.57;2.57;;;2.50;99.90;;;;;;4123229;28;20273;-57
2022/04/03 06:55:43;;;;;;;3.33;2.63;;;2.50;99.90;;;;;;4122441;28;20300;-57
2022/04/03 06:57:44;;;;;;;4.10;3.10;;;2.50;99.90;;;;;;4122998;28;20331;-53
2022/04/03 06:59:46;;;;;;;4.33;2.90;;;2.50;99.90;;;;;;4123069;28;20310;-58
2022/04/03 07:01:47;;;;;;;4.90;2.27;;;2.40;99.90;;;;;;4123020;28;20799;-58
2022/04/03 07:03:50;;;;;;;6.37;4.23;;;2.50;99.90;;;;;;4122183;28;20330;-57
2022/04/03 07:05:51;;;;;;;4.73;3.00;;;2.60;99.90;;;;;;4122663;28;20835;-56
2022/04/03 07:07:52;;;;;;;3.77;2.77;;;2.60;99.90;;;;;;4122258;28;20326;-56
2022/04/03 07:09:54;;;;;;;3.40;2.70;;;2.70;99.90;;;;;;4122983;28;20677;-55
2022/04/03 07:11:55;;;;;;;26.93;13.73;;;2.70;99.90;;;;;;4123255;28;20331;-58
2022/04/03 07:13:56;;;;;;;4.63;2.90;;;2.60;99.90;;;;;;4122899;28;20291;-57
2022/04/03 07:15:57;;;;;;;17.70;9.00;;;2.50;99.90;;;;;;4122831;28;20303;-57
2022/04/03 07:17:58;;;;;;;5.83;3.97;;;2.50;99.90;;;;;;4123796;28;20317;-57
2022/04/03 07:20:00;;;;;;;4.40;3.23;;;2.50;99.90;;;;;;4123238;28;20760;-57
2022/04/03 07:22:01;;;;;;;6.93;3.50;;;2.50;99.90;;;;;;4123702;28;20272;-58
2022/04/03 07:24:04;;;;;;;5.57;3.23;;;2.50;99.90;;;;;;4122528;28;20914;-60
2022/04/03 07:26:05;;;;;;;5.70;3.77;;;2.60;99.90;;;;;;4122882;28;20272;-55
2022/04/03 07:28:07;;;;;;;7.90;4.93;;;2.70;99.90;;;;;;4123470;28;20272;-57
2022/04/03 07:30:12;;;;;;;3.87;3.30;;;2.70;99.90;;;;;;4122720;28;20665;-59
2022/04/03 07:32:13;;;;;;;4.80;3.33;;;2.70;99.90;;;;;;4123131;28;20268;-55
2022/04/03 07:34:14;;;;;;;15.70;8.37;;;2.80;99.90;;;;;;4124798;28;20315;-56
2022/04/03 07:36:16;;;;;;;17.80;9.53;;;2.70;99.90;;;;;;4125445;28;20295;-58
2022/04/03 07:38:18;;;;;;;8.23;5.40;;;2.70;99.90;;;;;;4124683;28;20649;-54
2022/04/03 07:40:19;;;;;;;24.20;12.20;;;2.70;99.90;;;;;;4125511;28;20775;-56
2022/04/03 07:42:20;;;;;;;27.70;13.13;;;2.70;99.90;;;;;;4124877;28;20760;-57
2022/04/03 07:44:22;;;;;;;4.83;3.80;;;2.80;99.90;;;;;;4124447;28;20858;-55
2022/04/03 07:46:23;;;;;;;4.70;3.23;;;2.80;99.90;;;;;;4125148;28;20689;-56
2022/04/03 07:48:24;;;;;;;8.07;3.80;;;2.70;99.90;;;;;;4126626;28;20276;-55
2022/04/03 07:50:26;;;;;;;5.13;3.33;;;2.80;99.90;;;;;;4125319;28;20272;-55
2022/04/03 07:52:27;;;;;;;4.43;3.17;;;2.90;99.90;;;;;;4125267;28;20280;-58
2022/04/03 07:54:29;;;;;;;7.77;4.77;;;2.80;99.90;;;;;;4124599;28;20260;-55
2022/04/03 07:56:30;;;;;;;5.67;3.70;;;2.90;99.90;;;;;;4124830;28;20450;-58
2022/04/03 07:58:35;;;;;;;3.43;3.00;;;3.00;99.90;;;;;;4125089;28;20256;-58
2022/04/03 08:00:36;;;;;;;4.53;3.40;;;3.00;99.90;;;;;;4124809;28;20314;-62
2022/04/03 08:02:38;;;;;;;4.80;3.80;;;3.10;99.90;;;;;;4126070;28;20273;-57
2022/04/03 08:04:39;;;;;;;5.93;2.73;;;3.10;99.90;;;;;;4124991;28;20280;-57
2022/04/03 08:06:40;;;;;;;4.53;3.20;;;3.20;99.90;;;;;;4125330;28;20311;-55
2022/04/03 08:08:41;;;;;;;4.57;3.10;;;3.20;99.90;;;;;;4125190;28;20288;-55
2022/04/03 08:10:43;;;;;;;4.60;3.27;;;3.00;99.90;;;;;;4125323;28;20334;-57
2022/04/03 08:12:45;;;;;;;3.97;2.70;;;3.10;99.90;;;;;;4124886;28;20354;-56
2022/04/03 08:14:47;;;;;;;3.63;2.80;;;3.10;99.90;;;;;;4125082;28;21095;-58
2022/04/03 08:16:48;;;;;;;4.60;3.33;;;3.10;99.90;;;;;;4124091;28;20390;-54
2022/04/03 08:18:50;;;;;;;6.47;3.23;;;3.20;99.90;;;;;;4125381;28;20283;-54
2022/04/03 08:20:51;;;;;;;3.67;2.80;;;3.30;99.90;;;;;;4125214;28;20327;-56
2022/04/03 08:22:52;;;;;;;4.80;3.20;;;3.40;99.90;;;;;;4124889;28;20755;-51
2022/04/03 08:24:54;;;;;;;6.37;3.07;;;3.40;99.90;;;;;;4124064;28;20609;-58
2022/04/03 08:26:55;;;;;;;4.80;3.03;;;3.40;99.90;;;;;;4124855;28;20326;-58
2022/04/03 08:28:56;;;;;;;3.03;2.73;;;3.40;99.90;;;;;;4125273;28;20280;-55
2022/04/03 08:30:57;;;;;;;4.07;3.00;;;3.40;99.90;;;;;;4123709;28;20692;-57
2022/04/03 08:32:59;;;;;;;2.70;2.40;;;3.30;99.90;;;;;;4125666;28;20276;-57
2022/04/03 08:35:01;;;;;;;5.03;2.33;;;3.40;99.90;;;;;;4123973;28;20310;-57
2022/04/03 08:37:02;;;;;;;2.83;2.20;;;3.40;99.90;;;;;;4125176;28;20359;-55
2022/04/03 08:39:03;;;;;;;2.67;2.43;;;3.50;99.90;;;;;;4123984;28;20311;-56
2022/04/03 08:41:05;;;;;;;4.07;2.93;;;3.60;99.90;;;;;;4124562;28;20276;-57
2022/04/03 08:43:06;;;;;;;6.07;3.43;;;3.60;99.90;;;;;;4123261;28;20268;-51
2022/04/03 08:45:11;;;;;;;3.93;2.90;;;3.60;99.90;;;;;;4123451;28;20427;-53
2022/04/03 08:47:17;;;;;;;5.63;3.27;;;3.70;99.90;;;;;;4123882;28;20264;-58
2022/04/03 08:49:19;;;;;;;4.10;2.47;;;3.70;99.90;;;;;;4124539;28;20323;-54
2022/04/03 08:51:21;;;;;;;2.23;1.93;;;3.80;99.90;;;;;;4123361;28;20327;-59
2022/04/03 08:53:24;;;;;;;3.23;2.47;;;3.70;99.90;;;;;;4124711;28;20255;-55
2022/04/03 08:55:25;;;;;;;2.77;2.03;;;3.80;99.90;;;;;;4123614;28;20276;-56
2022/04/03 08:57:27;;;;;;;3.77;2.30;;;3.70;99.90;;;;;;4124174;28;20715;-57
2022/04/03 08:59:28;;;;;;;2.53;2.20;;;3.70;99.90;;;;;;4124019;28;20313;-56
2022/04/03 09:01:29;;;;;;;2.77;2.10;;;3.70;99.90;;;;;;4124272;28;20562;-58
2022/04/03 09:03:31;;;;;;;2.90;2.30;;;3.70;99.90;;;;;;4123972;28;20311;-59
2022/04/03 09:05:39;;;;;;;3.50;2.40;;;3.70;99.90;;;;;;4123695;28;20260;-57
2022/04/03 09:07:41;;;;;;;3.00;2.40;;;3.80;99.90;;;;;;4123331;28;20264;-57
2022/04/03 09:09:42;;;;;;;3.27;2.80;;;3.80;99.90;;;;;;4123299;28;20260;-55
2022/04/03 09:11:43;;;;;;;2.27;2.03;;;3.80;99.90;;;;;;4124173;28;20624;-57
2022/04/03 09:13:45;;;;;;;2.60;2.10;;;3.90;99.90;;;;;;4122981;28;20311;-59
2022/04/03 09:15:46;;;;;;;3.20;1.90;;;3.90;99.90;;;;;;4124502;28;20310;-51
2022/04/03 09:17:59;;;;;;;2.43;1.80;;;3.90;99.90;;;;;;4123432;28;20969;-57
2022/04/03 09:20:05;;;;;;;2.33;2.10;;;3.90;99.90;;;;;;4123975;28;20664;-55
2022/04/03 09:22:06;;;;;;;2.70;2.30;;;4.10;99.90;;;;;;4122673;28;20272;-62
2022/04/03 09:24:12;;;;;;;4.80;2.27;;;4.30;99.90;;;;;;4123889;28;20279;-56
2022/04/03 09:26:16;;;;;;;4.30;2.60;;;4.40;99.90;;;;;;4122430;28;20264;-54
2022/04/03 09:28:17;;;;;;;5.93;3.07;;;4.50;99.90;;;;;;4124071;28;20276;-58
2022/04/03 09:30:21;;;;;;;2.40;2.20;;;4.70;99.90;;;;;;4122941;28;20295;-57
2022/04/03 09:32:26;;;;;;;2.30;2.10;;;4.70;99.90;;;;;;4123637;28;20272;-57
2022/04/03 09:34:29;;;;;;;2.93;2.27;;;4.70;99.90;;;;;;4124063;28;20299;-57
2022/04/03 09:36:32;;;;;;;3.13;2.33;;;4.60;99.90;;;;;;4123780;28;20307;-53
2022/04/03 09:38:35;;;;;;;1.90;1.57;;;4.60;99.90;;;;;;4123015;28;20276;-58
2022/04/03 09:40:47;;;;;;;2.67;2.07;;;4.60;99.90;;;;;;4123128;28;20788;-58
2022/04/03 09:42:49;;;;;;;2.20;1.70;;;4.50;99.90;;;;;;4123608;28;20268;-58
2022/04/03 09:44:50;;;;;;;2.30;1.77;;;4.60;99.90;;;;;;4122981;28;20322;-58
2022/04/03 09:47:10;;;;;;;4.07;1.80;;;4.60;99.90;;;;;;4122793;28;20641;-62
2022/04/03 09:49:24;;;;;;;2.60;1.97;;;4.70;99.90;;;;;;4123243;28;20272;-56
2022/04/03 09:51:30;;;;;;;2.93;1.93;;;4.70;99.90;;;;;;4122870;28;20688;-59
2022/04/03 09:53:51;;;;;;;2.37;1.77;;;4.90;99.90;;;;;;4123116;28;20268;-59
2022/04/03 09:55:52;;;;;;;4.90;3.00;;;4.90;99.90;;;;;;4122208;28;20276;-56
2022/04/03 09:58:05;;;;;;;2.80;2.17;;;5.10;99.90;;;;;;4123723;28;20296;-60
2022/04/03 10:00:07;;;;;;;2.07;1.73;;;5.30;99.90;;;;;;4122985;28;20264;-57
2022/04/03 10:02:13;;;;;;;2.70;1.90;;;5.30;99.90;;;;;;4123113;28;20268;-59
2022/04/03 10:04:15;;;;;;;2.27;1.53;;;5.30;99.90;;;;;;4122516;28;20264;-58
2022/04/03 10:06:18;;;;;;;2.20;2.00;;;5.20;99.90;;;;;;4122455;28;20264;-59
2022/04/03 10:08:19;;;;;;;3.77;1.50;;;5.30;99.90;;;;;;4123218;28;20264;-59
2022/04/03 10:10:21;;;;;;;3.53;1.60;;;5.40;99.90;;;;;;4122269;28;20322;-58
2022/04/03 10:12:23;;;;;;;2.00;1.80;;;5.40;99.90;;;;;;4123617;28;20659;-57
2022/04/03 10:14:26;;;;;;;2.53;1.37;;;5.30;99.90;;;;;;4122225;28;20315;-57
2022/04/03 10:16:27;;;;;;;1.93;1.43;;;5.30;99.90;;;;;;4123163;28;20762;-56
2022/04/03 10:18:28;;;;;;;2.67;1.33;;;5.20;99.90;;;;;;4122347;28;20268;-56
2022/04/03 10:20:29;;;;;;;1.73;1.60;;;5.20;99.90;;;;;;4123722;28;20351;-61
2022/04/03 10:22:35;;;;;;;2.07;1.40;;;5.20;99.90;;;;;;4122633;28;20260;-57
2022/04/03 10:24:39;;;;;;;1.87;1.60;;;5.20;99.90;;;;;;4123338;28;20326;-60
2022/04/03 10:26:42;;;;;;;3.73;1.60;;;5.20;99.90;;;;;;4122180;28;20264;-58
2022/04/03 10:28:49;;;;;;;8.73;1.97;;;5.20;99.90;;;;;;4123832;28;20272;-58
2022/04/03 10:31:06;;;;;;;4.63;2.10;;;5.20;99.90;;;;;;4121991;28;20326;-52
2022/04/03 10:33:19;;;;;;;1.67;1.57;;;4.90;99.90;;;;;;4123366;28;20338;-59
2022/04/03 10:35:21;;;;;;;3.53;2.13;;;4.70;99.90;;;;;;4122446;28;20745;-57
2022/04/03 10:37:24;;;;;;;2.30;2.00;;;4.60;99.90;;;;;;4124370;28;20303;-58
2022/04/03 10:39:29;;;;;;;2.03;1.83;;;4.40;99.90;;;;;;4121811;28;20697;-58
2022/04/03 10:41:35;;;;;;;2.73;1.87;;;4.30;99.90;;;;;;4122881;28;20284;-57
2022/04/03 10:43:40;;;;;;;2.80;2.10;;;4.30;99.90;;;;;;4122649;28;20819;-59
2022/04/03 10:45:46;;;;;;;2.87;1.87;;;4.40;99.90;;;;;;4122561;28;20350;-62